.
WxDataArchive / Data Records for 2014-12-09
2014-12-08 December 2014 2014-12-10

Data Records for Tuesday, 09 December 2014

Time	Temp	Chill	HIndex	Humid	Dewpt	 Wind 	HiWind	WindDir	Rain 	Barom
-----	----	-----	------	-----	-----	------	------	-------	-----	-----
00:00	38.0	38.0	38.0	94	36.4	0	2	90	0.00	30.041 
00:05	38.0	38.0	38.0	94	36.4	0	2	90	0.00	30.041 
00:10	38.0	38.0	38.0	94	36.4	0	1	90	0.00	30.041 
00:15	38.0	38.0	38.0	94	36.4	0	1	90	0.00	30.038 
00:20	38.0	38.0	38.0	94	36.4	0	1	90	0.00	30.038 
00:25	38.0	38.0	38.0	94	36.4	0	1	90	0.00	30.038 
00:30	38.0	38.0	38.0	94	36.4	0	2	90	0.00	30.034 
00:35	38.0	38.0	38.0	94	36.4	0	1	90	0.00	30.034 
00:40	38.0	38.0	38.0	94	36.4	0	1	90	0.00	30.034 
00:45	38.0	38.0	38.0	94	36.4	0	1	90	0.00	30.035 
00:50	38.0	38.0	38.0	94	36.4	0	2	90	0.00	30.035 
00:55	38.0	38.0	38.0	94	36.4	0	2	90	0.00	30.035 
01:00	38.0	38.0	38.0	94	36.4	0	2	90	0.00	30.038 
01:05	38.0	38.0	38.0	94	36.4	1	3	90	0.00	30.038 
01:10	37.9	37.9	37.9	94	36.3	0	1	90	0.00	30.038 
01:15	37.9	37.9	37.9	94	36.3	0	2	90	0.01	30.034 
01:20	37.9	37.9	37.9	94	36.3	0	1	90	0.00	30.034 
01:25	37.9	37.9	37.9	94	36.3	0	1	90	0.00	30.034 
01:30	37.9	37.9	37.9	94	36.3	0	1	90	0.00	30.037 
01:35	37.8	37.8	37.8	94	36.2	0	1	90	0.00	30.037 
01:40	37.8	37.8	37.8	95	36.5	0	2	90	0.00	30.037 
01:45	37.8	37.8	37.8	95	36.5	0	1	90	0.00	30.034 
01:50	37.8	37.8	37.8	95	36.5	0	1	90	0.00	30.034 
01:55	37.8	37.8	37.8	95	36.5	0	2	90	0.00	30.034 
02:00	37.8	37.8	37.8	95	36.5	0	1	90	0.00	30.035 
02:05	37.8	37.8	37.8	95	36.5	0	1	90	0.00	30.035 
02:10	37.8	37.8	37.8	95	36.5	0	1	90	0.00	30.035 
02:15	37.8	37.8	37.8	95	36.5	0	2	90	0.00	30.037 
02:20	37.8	37.8	37.8	95	36.5	0	1	90	0.00	30.037 
02:25	37.8	37.8	37.8	95	36.5	0	0	---	0.00	30.037 
02:30	37.8	37.8	37.8	95	36.5	0	0	---	0.00	30.042 
02:35	37.8	37.8	37.8	95	36.5	0	0	---	0.00	30.042 
02:40	37.8	37.8	37.8	95	36.5	0	1	90	0.00	30.042 
02:45	37.6	37.6	37.6	95	36.3	0	0	---	0.00	30.045 
02:50	37.6	37.6	37.6	95	36.3	0	0	---	0.00	30.045 
02:55	37.6	37.6	37.6	95	36.3	0	0	---	0.00	30.045 
03:00	37.6	37.6	37.6	95	36.3	0	0	---	0.00	30.046 
03:05	37.6	37.6	37.6	95	36.3	0	0	---	0.00	30.046 
03:10	37.6	37.6	37.6	95	36.3	0	1	90	0.00	30.046 
03:15	37.6	37.6	37.6	95	36.3	0	1	90	0.00	30.049 
03:20	37.6	37.6	37.6	95	36.3	0	0	---	0.00	30.049 
03:25	37.6	37.6	37.6	95	36.3	0	1	90	0.00	30.049 
03:30	37.6	37.6	37.6	95	36.3	0	0	---	0.00	30.051 
03:35	37.6	37.6	37.6	95	36.3	0	0	---	0.00	30.051 
03:40	37.5	37.5	37.5	95	36.2	0	1	90	0.00	30.051 
03:45	37.5	37.5	37.5	95	36.2	0	0	---	0.00	30.054 
03:50	37.5	37.5	37.5	95	36.2	0	1	90	0.00	30.054 
03:55	37.3	37.3	37.3	94	35.7	0	2	90	0.00	30.054 
04:00	37.2	37.2	37.2	94	35.6	0	2	90	0.00	30.056 
04:05	37.2	37.2	37.2	94	35.6	1	3	90	0.00	30.056 
04:10	37.0	37.0	37.0	94	35.4	0	2	90	0.00	30.056 
04:15	36.9	36.9	36.9	94	35.3	0	3	90	0.00	30.059 
04:20	36.8	36.8	36.8	94	35.2	1	3	90	0.00	30.059 
04:25	36.6	36.6	36.6	94	35.0	1	3	90	0.00	30.059 
04:30	36.6	36.6	36.6	94	35.0	0	2	90	0.00	30.060 
04:35	36.6	36.6	36.6	94	35.0	0	2	90	0.00	30.060 
04:40	36.5	36.5	36.5	94	34.9	0	2	90	0.00	30.060 
04:45	36.5	36.5	36.5	94	34.9	0	2	90	0.00	30.062 
04:50	36.3	36.3	36.3	94	34.7	0	2	90	0.00	30.062 
04:55	36.3	36.3	36.3	94	34.7	0	1	90	0.00	30.062 
05:00	36.3	36.3	36.3	94	34.7	0	1	90	0.00	30.065 
05:05	36.3	36.3	36.3	94	34.7	0	0	---	0.00	30.065 
05:10	36.3	36.3	36.3	94	34.7	0	0	---	0.00	30.065 
05:15	36.3	36.3	36.3	94	34.7	0	0	---	0.00	30.075 
05:20	36.3	36.3	36.3	94	34.7	0	0	---	0.00	30.075 
05:25	36.3	36.3	36.3	94	34.7	0	1	90	0.00	30.075 
05:30	36.3	36.3	36.3	94	34.7	0	0	---	0.00	30.079 
05:35	36.3	36.3	36.3	94	34.7	0	1	90	0.00	30.079 
05:40	36.5	36.5	36.5	94	34.9	0	0	---	0.00	30.079 
05:45	36.5	36.5	36.5	94	34.9	0	1	90	0.00	30.083 
05:50	36.3	36.3	36.3	94	34.7	0	1	90	0.00	30.083 
05:55	36.3	36.3	36.3	94	34.7	0	0	---	0.00	30.083 
06:00	36.3	36.3	36.3	94	34.7	0	1	90	0.00	30.091 
06:05	36.3	36.3	36.3	94	34.7	0	2	90	0.00	30.091 
06:10	36.3	36.3	36.3	94	34.7	0	2	90	0.00	30.091 
06:15	36.3	36.3	36.3	94	34.7	1	2	90	0.00	30.092 
06:20	36.3	36.3	36.3	94	34.7	0	1	90	0.00	30.092 
06:25	36.3	36.3	36.3	95	35.0	0	1	90	0.00	30.092 
06:30	36.3	36.3	36.3	95	35.0	0	1	90	0.00	30.092 
06:35	36.3	36.3	36.3	95	35.0	0	1	90	0.00	30.092 
06:40	36.5	36.5	36.5	95	35.2	0	1	90	0.00	30.092 
06:45	36.5	36.5	36.5	95	35.2	0	1	90	0.00	30.098 
06:50	36.5	36.5	36.5	95	35.2	0	1	90	0.00	30.098 
06:55	36.5	36.5	36.5	95	35.2	0	1	90	0.00	30.098 
07:00	36.5	36.5	36.5	95	35.2	0	1	90	0.00	30.103 
07:05	36.5	36.5	36.5	95	35.2	0	1	90	0.00	30.103 
07:10	36.5	36.5	36.5	95	35.2	0	1	90	0.00	30.103 
07:15	36.5	36.5	36.5	95	35.2	0	2	90	0.00	30.106 
07:20	36.5	36.5	36.5	95	35.2	0	1	90	0.00	30.106 
07:25	36.5	36.5	36.5	95	35.2	0	2	90	0.00	30.106 
07:30	36.6	36.6	36.6	95	35.3	0	1	90	0.00	30.107 
07:35	36.6	36.6	36.6	95	35.3	0	1	90	0.00	30.107 
07:40	36.6	36.6	36.6	95	35.3	0	1	90	0.00	30.107 
07:45	36.6	36.6	36.6	95	35.3	0	1	90	0.00	30.107 
07:50	36.6	36.6	36.6	95	35.3	0	1	90	0.00	30.107 
07:55	36.6	36.6	36.6	95	35.3	0	1	90	0.00	30.107 
08:00	36.6	36.6	36.6	95	35.3	0	1	90	0.00	30.110 
08:05	36.6	36.6	36.6	95	35.3	0	1	90	0.00	30.110 
08:10	36.6	36.6	36.6	95	35.3	0	0	---	0.00	30.110 
08:15	36.6	36.6	36.6	95	35.3	0	1	90	0.00	30.114 
08:20	36.6	36.6	36.6	95	35.3	0	1	90	0.00	30.114 
08:25	36.6	36.6	36.6	95	35.3	0	2	90	0.00	30.114 
08:30	36.8	36.8	36.8	95	35.5	0	2	90	0.00	30.122 
08:35	36.8	36.8	36.8	95	35.5	0	3	90	0.00	30.122 
08:40	36.8	36.8	36.8	95	35.5	1	3	90	0.00	30.122 
08:45	36.8	36.8	36.8	95	35.5	0	2	90	0.00	30.126 
08:50	36.8	36.8	36.8	95	35.5	0	3	90	0.00	30.126 
08:55	36.9	36.9	36.9	95	35.6	0	1	45	0.00	30.126 
09:00	36.9	36.9	36.9	95	35.6	0	2	45	0.00	30.132 
09:05	36.9	36.9	36.9	95	35.6	0	3	22	0.00	30.132 
09:10	36.9	36.9	36.9	95	35.6	1	3	22	0.00	30.132 
09:15	36.9	36.9	36.9	95	35.6	0	2	22	0.00	30.140 
09:20	36.9	36.9	36.9	95	35.6	0	2	22	0.00	30.140 
09:25	36.9	36.9	36.9	95	35.6	1	3	22	0.00	30.140 
09:30	36.8	36.8	36.8	95	35.5	1	3	22	0.00	30.151 
09:35	36.8	36.8	36.8	95	35.5	1	4	22	0.00	30.151 
09:40	36.8	36.8	36.8	94	35.2	1	3	292	0.00	30.151 
09:45	36.9	36.9	36.9	94	35.3	1	2	292	0.00	30.157 
09:50	36.9	36.9	36.9	94	35.3	1	5	315	0.00	30.157 
09:55	36.9	36.9	36.9	94	35.3	1	5	270	0.00	30.157 
10:00	36.8	36.8	36.8	94	35.2	1	3	270	0.00	30.164 
10:05	36.9	36.9	36.9	94	35.3	1	3	270	0.00	30.164 
10:10	36.9	36.9	36.9	94	35.3	1	5	270	0.00	30.164 
10:15	36.8	36.8	36.8	93	35.0	1	5	292	0.00	30.169 
10:20	36.6	36.6	36.6	93	34.8	1	5	338	0.00	30.169 
10:25	36.5	36.5	36.5	93	34.7	1	4	315	0.00	30.169 
10:30	36.5	36.5	36.5	93	34.7	2	5	315	0.00	30.170 
10:35	36.5	36.5	36.5	92	34.4	1	3	338	0.00	30.170 
10:40	36.6	36.6	36.6	92	34.5	1	3	315	0.00	30.170 
10:45	36.8	36.8	36.8	92	34.7	1	3	315	0.00	30.172 
10:50	36.8	36.8	36.8	92	34.7	1	3	315	0.00	30.172 
10:55	36.8	36.8	36.8	92	34.7	1	3	315	0.00	30.172 
11:00	36.5	36.5	36.5	92	34.4	2	6	315	0.00	30.181 
11:05	36.3	36.3	36.3	92	34.2	1	4	338	0.00	30.181 
11:10	36.3	36.3	36.3	92	34.2	1	4	338	0.00	30.181 
11:15	36.3	36.3	36.3	91	33.9	2	6	338	0.00	30.188 
11:20	36.3	36.3	36.3	91	33.9	1	6	0	0.00	30.188 
11:25	36.3	36.3	36.3	91	33.9	1	4	315	0.00	30.188 
11:30	36.3	36.3	36.3	91	33.9	1	3	315	0.00	30.186 
11:35	36.3	36.3	36.3	91	33.9	2	4	315	0.00	30.186 
11:40	36.3	36.3	36.3	91	33.9	1	4	0	0.00	30.186 
11:45	36.3	36.3	36.3	91	33.9	1	3	315	0.00	30.185 
11:50	36.5	36.5	36.5	92	34.4	0	2	315	0.00	30.185 
11:55	36.5	36.5	36.5	92	34.4	1	6	270	0.00	30.185 
12:00	36.5	36.5	36.5	92	34.4	0	3	270	0.00	30.183 
12:05	36.6	36.6	36.6	92	34.5	0	1	270	0.00	30.183 
12:10	36.6	36.6	36.6	91	34.2	1	2	270	0.00	30.183 
12:15	36.6	36.6	36.6	91	34.2	1	3	270	0.00	30.181 
12:20	36.8	36.8	36.8	91	34.4	1	3	270	0.00	30.181 
12:25	36.8	36.8	36.8	91	34.4	2	6	338	0.00	30.181 
12:30	36.9	36.9	36.9	91	34.5	1	6	292	0.00	30.186 
12:35	36.9	36.9	36.9	90	34.2	2	4	315	0.00	30.186 
12:40	37.0	37.0	37.0	90	34.3	1	4	292	0.00	30.186 
12:45	36.9	36.9	36.9	89	34.0	2	7	338	0.00	30.182 
12:50	36.9	36.9	36.9	89	34.0	2	5	338	0.00	30.182 
12:55	36.9	36.9	36.9	88	33.7	2	4	315	0.00	30.182 
13:00	37.0	37.0	37.0	88	33.8	1	4	338	0.00	30.178 
13:05	37.0	37.0	37.0	88	33.8	1	3	338	0.00	30.178 
13:10	37.0	37.0	37.0	88	33.8	2	6	0	0.00	30.178 
13:15	37.0	37.0	37.0	87	33.5	1	4	338	0.00	30.184 
13:20	37.0	37.0	37.0	87	33.5	1	4	338	0.00	30.184 
13:25	37.0	37.0	37.0	86	33.2	1	4	338	0.00	30.184 
13:30	36.9	36.9	36.9	86	33.1	2	5	338	0.00	30.187 
13:35	37.0	37.0	37.0	86	33.2	1	4	292	0.00	30.187 
13:40	36.9	36.9	36.9	86	33.1	1	4	338	0.00	30.187 
13:45	36.8	36.8	36.8	85	32.7	1	4	338	0.00	30.187 
13:50	36.8	36.8	36.8	85	32.7	1	5	292	0.00	30.187 
13:55	36.9	36.9	36.9	85	32.8	1	3	0	0.00	30.187 
14:00	37.0	37.0	37.0	85	32.9	1	4	292	0.00	30.188 
14:05	37.2	37.2	37.2	85	33.1	1	3	270	0.00	30.188 
14:10	37.2	37.2	37.2	84	32.8	1	5	270	0.00	30.188 
14:15	37.3	37.3	37.3	84	32.9	1	3	270	0.00	30.193 
14:20	37.5	37.5	37.5	83	32.8	1	5	338	0.00	30.193 
14:25	37.5	37.5	37.5	83	32.8	1	4	338	0.00	30.193 
14:30	37.8	37.8	37.8	82	32.8	2	5	338	0.00	30.188 
14:35	37.9	37.9	37.9	81	32.6	2	4	0	0.00	30.188 
14:40	38.0	38.0	38.0	81	32.7	1	4	315	0.00	30.188 
14:45	38.2	38.2	38.2	80	32.6	1	6	338	0.00	30.198 
14:50	38.3	38.3	38.3	80	32.7	1	3	315	0.00	30.198 
14:55	38.3	38.3	38.3	80	32.7	0	2	315	0.00	30.198 
15:00	38.3	38.3	38.3	80	32.7	1	3	0	0.00	30.200 
15:05	38.2	38.2	38.2	80	32.6	1	4	338	0.00	30.200 
15:10	38.2	38.2	38.2	80	32.6	0	2	338	0.00	30.200 
15:15	38.2	38.2	38.2	80	32.6	0	4	338	0.00	30.204 
15:20	38.2	38.2	38.2	80	32.6	1	4	338	0.00	30.204 
15:25	38.3	38.3	38.3	80	32.7	0	2	338	0.00	30.204 
15:30	38.3	38.3	38.3	80	32.7	0	2	338	0.00	30.207 
15:35	38.2	38.2	38.2	80	32.6	1	3	0	0.00	30.207 
15:40	38.2	38.2	38.2	80	32.6	1	3	0	0.00	30.207 
15:45	38.2	38.2	38.2	80	32.6	1	3	338	0.00	30.216 
15:50	38.2	38.2	38.2	79	32.3	1	6	338	0.00	30.216 
15:55	38.2	38.2	38.2	79	32.3	1	5	338	0.00	30.216 
16:00	38.2	38.2	38.2	78	32.0	1	5	22	0.00	30.218 
16:05	38.2	38.2	38.2	78	32.0	1	4	315	0.00	30.218 
16:10	38.2	38.2	38.2	79	32.3	1	5	0	0.00	30.218 
16:15	38.0	38.0	38.0	80	32.4	2	5	22	0.00	30.219 
16:20	37.9	37.9	37.9	80	32.3	1	3	292	0.00	30.219 
16:25	37.9	37.9	37.9	81	32.6	1	4	0	0.00	30.219 
16:30	37.8	37.8	37.8	81	32.5	2	6	0	0.00	30.222 
16:35	37.8	37.8	37.8	81	32.5	1	5	315	0.00	30.222 
16:40	37.8	37.8	37.8	81	32.5	1	4	315	0.00	30.222 
16:45	37.8	37.8	37.8	81	32.5	1	3	45	0.00	30.231 
16:50	37.6	37.6	37.6	81	32.3	2	4	22	0.00	30.231 
16:55	37.6	37.6	37.6	81	32.3	1	4	315	0.00	30.231 
17:00	37.5	37.5	37.5	82	32.5	1	3	315	0.00	30.233 
17:05	37.5	37.5	37.5	82	32.5	1	3	315	0.00	30.233 
17:10	37.3	37.3	37.3	83	32.6	1	3	315	0.00	30.233 
17:15	37.2	37.2	37.2	83	32.5	1	4	315	0.00	30.236 
17:20	37.0	37.0	37.0	84	32.6	1	3	338	0.00	30.236 
17:25	37.0	37.0	37.0	84	32.6	0	2	338	0.00	30.236 
17:30	37.0	37.0	37.0	84	32.6	1	4	315	0.00	30.237 
17:35	36.9	36.9	36.9	84	32.5	1	2	315	0.00	30.237 
17:40	36.9	36.9	36.9	84	32.5	1	3	315	0.00	30.237 
17:45	36.9	36.9	36.9	84	32.5	0	1	22	0.00	30.237 
17:50	36.9	36.9	36.9	84	32.5	1	3	0	0.00	30.237 
17:55	36.8	36.8	36.8	84	32.4	0	3	0	0.00	30.237 
18:00	36.8	36.8	36.8	84	32.4	0	3	0	0.00	30.238 
18:05	36.8	36.8	36.8	84	32.4	0	3	0	0.00	30.238 
18:10	36.8	36.8	36.8	84	32.4	0	4	0	0.00	30.238 
18:15	36.8	36.8	36.8	84	32.4	0	1	0	0.00	30.237 
18:20	36.8	36.8	36.8	85	32.7	1	5	0	0.00	30.237 
18:25	36.8	36.8	36.8	84	32.4	1	3	0	0.00	30.237 
18:30	36.8	36.8	36.8	84	32.4	1	4	0	0.00	30.238 
18:35	36.8	36.8	36.8	84	32.4	0	3	0	0.00	30.238 
18:40	36.8	36.8	36.8	84	32.4	1	4	0	0.00	30.238 
18:45	36.8	36.8	36.8	84	32.4	0	4	0	0.00	30.243 
18:50	36.8	36.8	36.8	83	32.1	1	4	338	0.00	30.243 
18:55	36.8	36.8	36.8	82	31.8	1	4	338	0.00	30.243 
19:00	36.8	36.8	36.8	81	31.5	0	3	338	0.00	30.247 
19:05	36.9	36.9	36.9	81	31.6	0	3	292	0.00	30.247 
19:10	36.9	36.9	36.9	81	31.6	1	4	292	0.00	30.247 
19:15	36.9	36.9	36.9	80	31.3	1	4	292	0.00	30.251 
19:20	36.9	36.9	36.9	80	31.3	0	2	315	0.00	30.251 
19:25	36.9	36.9	36.9	80	31.3	1	3	0	0.00	30.251 
19:30	36.9	36.9	36.9	80	31.3	0	2	0	0.00	30.254 
19:35	37.0	37.0	37.0	80	31.4	0	3	0	0.00	30.254 
19:40	37.0	37.0	37.0	80	31.4	0	2	0	0.00	30.254 
19:45	37.0	37.0	37.0	80	31.4	1	3	0	0.00	30.257 
19:50	36.9	36.9	36.9	80	31.3	0	2	0	0.00	30.257 
19:55	36.9	36.9	36.9	80	31.3	1	4	0	0.00	30.257 
20:00	36.9	36.9	36.9	80	31.3	0	1	0	0.00	30.263 
20:05	36.9	36.9	36.9	80	31.3	0	3	315	0.00	30.263 
20:10	36.9	36.9	36.9	81	31.6	1	2	315	0.00	30.263 
20:15	36.8	36.8	36.8	81	31.5	0	2	315	0.00	30.265 
20:20	36.8	36.8	36.8	81	31.5	0	3	315	0.00	30.265 
20:25	36.8	36.8	36.8	81	31.5	1	4	338	0.00	30.265 
20:30	36.6	36.6	36.6	81	31.3	1	3	292	0.00	30.265 
20:35	36.6	36.6	36.6	81	31.3	0	1	292	0.00	30.265 
20:40	36.6	36.6	36.6	82	31.6	0	1	292	0.00	30.265 
20:45	36.5	36.5	36.5	82	31.5	0	2	292	0.00	30.265 
20:50	36.5	36.5	36.5	82	31.5	0	2	292	0.00	30.265 
20:55	36.5	36.5	36.5	83	31.8	1	4	315	0.00	30.265 
21:00	36.5	36.5	36.5	83	31.8	1	4	315	0.00	30.266 
21:05	36.3	36.3	36.3	83	31.6	1	4	270	0.00	30.266 
21:10	36.3	36.3	36.3	84	31.9	1	4	292	0.00	30.266 
21:15	36.2	36.2	36.2	84	31.8	1	4	292	0.00	30.267 
21:20	36.0	36.0	36.0	84	31.6	1	4	338	0.00	30.267 
21:25	36.0	36.0	36.0	84	31.6	1	3	0	0.00	30.267 
21:30	36.0	36.0	36.0	84	31.6	1	5	292	0.00	30.267 
21:35	36.0	36.0	36.0	84	31.6	1	4	292	0.00	30.267 
21:40	35.9	35.9	35.9	84	31.5	1	3	292	0.00	30.267 
21:45	35.9	35.9	35.9	83	31.2	1	3	292	0.00	30.267 
21:50	35.9	35.9	35.9	83	31.2	1	4	315	0.00	30.267 
21:55	35.9	35.9	35.9	83	31.2	0	2	315	0.00	30.267 
22:00	35.9	35.9	35.9	83	31.2	1	3	292	0.00	30.267 
22:05	35.9	35.9	35.9	83	31.2	1	3	292	0.00	30.267 
22:10	35.9	35.9	35.9	82	31.0	1	3	292	0.00	30.267 
22:15	35.9	35.9	35.9	82	31.0	1	3	315	0.00	30.268 
22:20	35.9	35.9	35.9	82	31.0	1	3	315	0.00	30.268 
22:25	35.9	35.9	35.9	82	31.0	1	2	315	0.00	30.268 
22:30	35.8	35.8	35.8	81	30.6	1	4	338	0.00	30.270 
22:35	35.8	35.8	35.8	81	30.6	2	6	338	0.00	30.270 
22:40	35.8	35.8	35.8	80	30.2	1	5	338	0.00	30.270 
22:45	35.8	35.8	35.8	80	30.2	2	4	338	0.00	30.272 
22:50	35.8	35.8	35.8	80	30.2	1	3	338	0.00	30.272 
22:55	35.8	35.8	35.8	80	30.2	1	4	338	0.00	30.272 
23:00	35.8	35.8	35.8	80	30.2	1	3	338	0.00	30.276 
23:05	35.8	35.8	35.8	80	30.2	1	3	338	0.00	30.276 
23:10	35.8	35.8	35.8	80	30.2	1	4	338	0.00	30.276 
23:15	35.6	35.6	35.6	80	30.1	0	2	315	0.00	30.278 
23:20	35.6	35.6	35.6	80	30.1	1	3	315	0.00	30.278 
23:25	35.6	35.6	35.6	80	30.1	1	4	315	0.00	30.278 
23:30	35.5	35.5	35.5	80	30.0	1	5	315	0.00	30.278 
23:35	35.5	35.5	35.5	80	30.0	0	2	338	0.00	30.278 
23:40	35.5	35.5	35.5	80	30.0	0	2	338	0.00	30.278 
23:45	35.3	35.3	35.3	80	29.8	0	1	338	0.00	30.280 
23:50	35.3	35.3	35.3	80	29.8	1	3	338	0.00	30.280 
23:55	35.3	35.3	35.3	80	29.8	1	3	292	0.00	30.280 

CoCoRaHS
IN-AL-39
A2 Web Hosting
Creative Commons License
GoDaddy
search engine by freefind advanced

loaded 2018-11-13 22:05:23 • last modified 2010-11-18 10:43:29
Privacy PolicyDisclaimer
• wx.awcolley.com is powered by PmWiki v.2002016 •
• all content (unless otherwise noted) © 2018 A W Colley